Orangeburg, New York
Current Conditions -  °F | °C
As of 1:34 PM on Sunday 21 Dec 2014 (Local Time) from KHPN Reporting Station
Light Snow Light Snow  
Wind Chill: 27°   Ceiling: 800
Heat Index: 34°   Visibility: 1mi
Dew Point: 30°   Wind: 8mph
Humidity: 87%   Direction: 340°NNW
Pressure: 30.25"   Gusts: NA
Location:  41.05°N, 73.95°W
Report Text: KHPN 211834Z 34007KT 1SM R16/5500VP6000FT -SN BKN008 OVC014 01/M01 A3025 RMK AO2 CIG 006V011 P0000
Loading
Personal Weather Stations






























Interactive Weather Map New forecast layout! Learn more

10-Day Weather Forecast

Advertisements
Track Severe Weather on mobile